Time;durP1;ratioP1;P1;durP2;ratioP2;P2;SDS_P1;SDS_P2;PMS_P1;PMS_P2;Temp;Humidity;BMP_temperature;BMP_pressure;BME280_temperature;BME280_humidity;BME280_pressure;Samples;Min_cycle;Max_cycle;Signal;HPM_P1;HPM_P2
2022/06/07 00:01:03;;;;;;;1.10;0.95;;;;;;;;;;5043978;28;20198;-77
2022/06/07 00:03:30;;;;;;;1.52;0.70;;;;;;;;;;5042623;28;20196;-77
2022/06/07 00:05:57;;;;;;;1.00;0.80;;;;;;;;;;5037098;28;20683;-77
2022/06/07 00:08:24;;;;;;;1.63;1.45;;;;;;;;;;5039911;28;20210;-75
2022/06/07 00:10:52;;;;;;;1.40;1.00;;;;;;;;;;5042458;28;20590;-77
2022/06/07 00:13:19;;;;;;;1.20;1.00;;;;;;;;;;5050842;28;20207;-77
2022/06/07 00:15:47;;;;;;;1.80;1.20;;;;;;;;;;5030887;28;20218;-77
2022/06/07 00:18:15;;;;;;;1.23;1.00;;;;;;;;;;5045790;28;20202;-77
2022/06/07 00:20:43;;;;;;;1.10;1.00;;;;;;;;;;5037161;28;21032;-78
2022/06/07 00:23:12;;;;;;;1.10;0.90;;;;;;;;;;5044728;28;20278;-76
2022/06/07 00:25:39;;;;;;;1.65;1.30;;;;;;;;;;5035638;28;20644;-78
2022/06/07 00:28:06;;;;;;;1.23;1.13;;;;;;;;;;5032186;28;20581;-80
2022/06/07 00:30:33;;;;;;;1.55;1.30;;;;;;;;;;5037212;28;20199;-79
2022/06/07 00:33:01;;;;;;;2.22;1.00;;;;;;;;;;5052839;28;20245;-79
2022/06/07 00:35:29;;;;;;;1.42;1.10;;;;;;;;;;5044498;28;20215;-81
2022/06/07 00:37:56;;;;;;;1.25;1.15;;;;;;;;;;5034102;28;20191;-82
2022/06/07 00:40:23;;;;;;;1.15;1.05;;;;;;;;;;5041315;28;20202;-81
2022/06/07 00:42:50;;;;;;;1.73;1.30;;;;;;;;;;5041487;28;20218;-81
2022/06/07 00:45:18;;;;;;;1.35;1.25;;;;;;;;;;5038804;28;20199;-82
2022/06/07 00:47:46;;;;;;;1.75;1.20;;;;;;;;;;5045410;28;20196;-83
2022/06/07 00:50:16;;;;;;;1.58;1.40;;;;;;;;;;5039877;28;20204;-82
2022/06/07 00:52:45;;;;;;;4.00;1.55;;;;;;;;;;5050928;28;20195;-82
2022/06/07 00:55:12;;;;;;;1.40;1.10;;;;;;;;;;5038584;28;20625;-82
2022/06/07 00:57:39;;;;;;;1.50;1.40;;;;;;;;;;5046248;28;20230;-82
2022/06/07 01:00:08;;;;;;;1.63;1.40;;;;;;;;;;5038402;28;20196;-82
2022/06/07 01:02:35;;;;;;;1.02;0.93;;;;;;;;;;5042082;28;20207;-82
2022/06/07 01:05:02;;;;;;;1.55;1.30;;;;;;;;;;5040525;28;20192;-82
2022/06/07 01:12:59;;;;;;;3.10;1.75;;;;;;;;;;5037262;28;20194;-81
2022/06/07 01:15:26;;;;;;;2.08;1.88;;;;;;;;;;5044159;28;20210;-80
2022/06/07 01:17:54;;;;;;;1.75;1.65;;;;;;;;;;5038439;28;20583;-81
2022/06/07 01:20:21;;;;;;;2.00;1.80;;;;;;;;;;5041206;28;20241;-81
2022/06/07 01:22:49;;;;;;;1.98;1.20;;;;;;;;;;5047255;28;20202;-81
2022/06/07 01:25:16;;;;;;;1.90;1.25;;;;;;;;;;5045559;28;20651;-81
2022/06/07 01:27:43;;;;;;;1.60;1.50;;;;;;;;;;5045467;28;20681;-82
2022/06/07 01:30:11;;;;;;;1.75;1.65;;;;;;;;;;5043707;28;20257;-82
2022/06/07 01:32:38;;;;;;;1.85;1.75;;;;;;;;;;5036662;28;20586;-82
2022/06/07 01:35:05;;;;;;;1.60;1.50;;;;;;;;;;5046712;28;20689;-82
2022/06/07 01:37:32;;;;;;;2.20;2.00;;;;;;;;;;5039646;28;20712;-82
2022/06/07 01:42:45;;;;;;;2.45;2.15;;;;;;;;;;5049541;28;20225;-82
2022/06/07 01:45:12;;;;;;;2.47;2.28;;;;;;;;;;5045923;28;20199;-82
2022/06/07 01:47:40;;;;;;;2.30;2.10;;;;;;;;;;5034692;28;20215;-82
2022/06/07 01:50:08;;;;;;;1.75;1.65;;;;;;;;;;5037037;28;20552;-83
2022/06/07 01:52:36;;;;;;;2.63;1.65;;;;;;;;;;5046036;28;20234;-83
2022/06/07 01:55:05;;;;;;;2.10;1.98;;;;;;;;;;5047359;28;20202;-83
2022/06/07 01:57:32;;;;;;;2.00;1.80;;;;;;;;;;5046785;28;20219;-83
2022/06/07 02:00:00;;;;;;;2.03;1.85;;;;;;;;;;5036849;28;20199;-82
2022/06/07 02:02:28;;;;;;;2.33;2.17;;;;;;;;;;5046480;28;20658;-83
2022/06/07 02:04:56;;;;;;;1.83;1.73;;;;;;;;;;5048214;28;20603;-83
2022/06/07 02:07:23;;;;;;;1.70;1.60;;;;;;;;;;5046647;28;20191;-83
2022/06/07 02:09:51;;;;;;;2.08;1.88;;;;;;;;;;5048235;28;20199;-82
2022/06/07 02:12:19;;;;;;;1.90;1.80;;;;;;;;;;5037808;28;20659;-82
2022/06/07 02:14:46;;;;;;;2.08;1.65;;;;;;;;;;5040472;28;20589;-82
2022/06/07 02:17:14;;;;;;;1.75;1.65;;;;;;;;;;5037434;28;20298;-81
2022/06/07 02:19:41;;;;;;;2.40;2.20;;;;;;;;;;5040947;28;20222;-82
2022/06/07 02:22:08;;;;;;;1.90;1.80;;;;;;;;;;5039250;28;20209;-81
2022/06/07 02:24:36;;;;;;;1.90;1.80;;;;;;;;;;5044959;28;20657;-82
2022/06/07 02:27:04;;;;;;;2.35;2.15;;;;;;;;;;5034423;28;20314;-82
2022/06/07 02:29:35;;;;;;;2.00;1.65;;;;;;;;;;5036578;28;20365;-81
2022/06/07 02:32:04;;;;;;;1.75;1.65;;;;;;;;;;5033630;28;20207;-79
2022/06/07 02:34:31;;;;;;;1.73;1.63;;;;;;;;;;5042807;28;20678;-79
2022/06/07 02:37:00;;;;;;;2.67;2.45;;;;;;;;;;5043264;28;20219;-79
2022/06/07 02:39:30;;;;;;;1.85;1.75;;;;;;;;;;5031201;28;20199;-81
2022/06/07 02:41:58;;;;;;;4.50;2.95;;;;;;;;;;5034068;28;20219;-79
2022/06/07 02:44:25;;;;;;;2.50;1.65;;;;;;;;;;5035916;28;20223;-79
2022/06/07 02:46:53;;;;;;;2.10;1.85;;;;;;;;;;5038920;28;20187;-80
2022/06/07 02:49:21;;;;;;;1.63;1.52;;;;;;;;;;5040671;28;20207;-80
2022/06/07 02:51:48;;;;;;;1.85;1.75;;;;;;;;;;5040555;28;20203;-80
2022/06/07 02:54:15;;;;;;;1.95;1.85;;;;;;;;;;5046482;28;20205;-80
2022/06/07 02:56:42;;;;;;;2.35;1.83;;;;;;;;;;5048415;28;20265;-80
2022/06/07 02:59:09;;;;;;;1.90;1.80;;;;;;;;;;5039026;28;20257;-80
2022/06/07 03:01:37;;;;;;;1.80;1.70;;;;;;;;;;5042238;28;20202;-80
2022/06/07 03:04:05;;;;;;;1.58;1.48;;;;;;;;;;5052549;28;20203;-83
2022/06/07 03:06:32;;;;;;;2.03;1.88;;;;;;;;;;5043523;28;20265;-79
2022/06/07 03:08:59;;;;;;;2.20;1.98;;;;;;;;;;5044102;28;20191;-79
2022/06/07 03:11:26;;;;;;;2.63;2.10;;;;;;;;;;5047623;28;20613;-78
2022/06/07 03:13:53;;;;;;;1.65;1.55;;;;;;;;;;5034941;28;20195;-79
2022/06/07 03:16:20;;;;;;;2.03;1.83;;;;;;;;;;5041806;28;20206;-79
2022/06/07 03:18:47;;;;;;;2.20;1.80;;;;;;;;;;5046716;28;20211;-79
2022/06/07 03:21:16;;;;;;;2.65;1.80;;;;;;;;;;5043832;28;20195;-79
2022/06/07 03:23:43;;;;;;;1.55;1.45;;;;;;;;;;5047097;28;20198;-80
2022/06/07 03:26:11;;;;;;;1.90;1.70;;;;;;;;;;5048084;28;20675;-79
2022/06/07 03:28:38;;;;;;;1.70;1.60;;;;;;;;;;5046467;28;20223;-81
2022/06/07 03:31:07;;;;;;;3.35;2.10;;;;;;;;;;5043888;28;20230;-80
2022/06/07 03:33:34;;;;;;;1.85;1.75;;;;;;;;;;5041733;28;20676;-78
2022/06/07 03:36:06;;;;;;;1.67;1.55;;;;;;;;;;5043565;28;20673;-78
2022/06/07 03:38:34;;;;;;;2.10;1.50;;;;;;;;;;5045235;28;20223;-78
2022/06/07 03:41:02;;;;;;;2.20;1.38;;;;;;;;;;5047763;28;20207;-79
2022/06/07 03:43:29;;;;;;;1.42;1.33;;;;;;;;;;5033145;28;20203;-78
2022/06/07 03:45:56;;;;;;;2.22;1.77;;;;;;;;;;5043244;28;20656;-78
2022/06/07 03:48:23;;;;;;;2.25;1.80;;;;;;;;;;5050008;28;20207;-79
2022/06/07 03:50:50;;;;;;;4.30;1.48;;;;;;;;;;5044041;28;20198;-78
2022/06/07 03:53:17;;;;;;;2.55;1.65;;;;;;;;;;5036921;28;20195;-78
2022/06/07 03:55:47;;;;;;;1.40;1.30;;;;;;;;;;5042289;28;20290;-80
2022/06/07 03:58:14;;;;;;;2.53;1.27;;;;;;;;;;5043547;28;20260;-79
2022/06/07 04:00:43;;;;;;;1.52;1.42;;;;;;;;;;5039398;28;20195;-78
2022/06/07 04:03:10;;;;;;;1.58;1.48;;;;;;;;;;5049606;28;20192;-79
2022/06/07 04:05:41;;;;;;;1.30;1.20;;;;;;;;;;5033813;28;20601;-79
2022/06/07 04:08:11;;;;;;;1.40;1.10;;;;;;;;;;5040397;28;20227;-78
2022/06/07 04:10:38;;;;;;;1.58;1.25;;;;;;;;;;5046685;28;20407;-77
2022/06/07 04:13:07;;;;;;;2.00;1.60;;;;;;;;;;5045553;28;20686;-79
2022/06/07 04:15:34;;;;;;;1.73;1.58;;;;;;;;;;5040064;28;20243;-80
2022/06/07 04:18:01;;;;;;;1.65;1.55;;;;;;;;;;5053173;28;20218;-79
2022/06/07 04:20:28;;;;;;;2.22;1.38;;;;;;;;;;5041600;28;20196;-79
2022/06/07 04:22:55;;;;;;;1.35;1.15;;;;;;;;;;5040347;28;20207;-81
2022/06/07 04:25:22;;;;;;;1.40;1.30;;;;;;;;;;5044505;28;22230;-79
2022/06/07 04:27:49;;;;;;;1.98;1.33;;;;;;;;;;5044979;28;20199;-80
2022/06/07 04:30:17;;;;;;;1.90;1.70;;;;;;;;;;5035740;28;20199;-79
2022/06/07 04:32:47;;;;;;;3.38;1.60;;;;;;;;;;5048820;28;20531;-78
2022/06/07 04:35:17;;;;;;;1.95;1.30;;;;;;;;;;5037788;28;20367;-79
2022/06/07 04:37:44;;;;;;;3.58;1.50;;;;;;;;;;5037742;28;20219;-79
2022/06/07 04:40:11;;;;;;;1.67;1.45;;;;;;;;;;5051289;28;20199;-78
2022/06/07 04:42:38;;;;;;;1.67;1.45;;;;;;;;;;5044560;28;20234;-79
2022/06/07 04:45:06;;;;;;;2.25;1.38;;;;;;;;;;5041021;28;20725;-82
2022/06/07 04:47:35;;;;;;;1.40;1.30;;;;;;;;;;5040800;28;20590;-82
2022/06/07 04:50:02;;;;;;;3.55;1.58;;;;;;;;;;5039995;28;20673;-82
2022/06/07 04:52:29;;;;;;;3.63;1.30;;;;;;;;;;5052319;28;20198;-80
2022/06/07 04:54:56;;;;;;;2.97;1.40;;;;;;;;;;5046225;28;20195;-79
2022/06/07 04:57:24;;;;;;;2.25;1.75;;;;;;;;;;5036881;28;20223;-80
2022/06/07 04:59:51;;;;;;;2.00;1.50;;;;;;;;;;5046774;28;20204;-79
2022/06/07 05:02:18;;;;;;;2.47;1.60;;;;;;;;;;5042674;28;20211;-80
2022/06/07 05:04:46;;;;;;;1.60;1.45;;;;;;;;;;5040868;28;20249;-80
2022/06/07 05:07:13;;;;;;;1.98;1.50;;;;;;;;;;5036569;28;20192;-79
2022/06/07 05:09:40;;;;;;;4.13;1.50;;;;;;;;;;5045818;28;20202;-80
2022/06/07 05:12:09;;;;;;;2.30;1.55;;;;;;;;;;5050088;28;20207;-80
2022/06/07 05:14:36;;;;;;;1.90;1.42;;;;;;;;;;5041543;28;20294;-82
2022/06/07 05:17:03;;;;;;;2.75;1.65;;;;;;;;;;5046726;28;20199;-79
2022/06/07 05:19:33;;;;;;;3.35;1.30;;;;;;;;;;5052629;28;20643;-80
2022/06/07 05:22:01;;;;;;;2.50;1.33;;;;;;;;;;5037057;28;20206;-79
2022/06/07 05:24:28;;;;;;;1.50;1.40;;;;;;;;;;5048108;28;20261;-81
2022/06/07 05:26:56;;;;;;;2.05;1.70;;;;;;;;;;5036442;28;20202;-80
2022/06/07 05:29:26;;;;;;;1.95;1.50;;;;;;;;;;5045606;28;20214;-79
2022/06/07 05:31:53;;;;;;;2.22;1.55;;;;;;;;;;5044846;28;20249;-77
2022/06/07 05:34:20;;;;;;;1.80;1.50;;;;;;;;;;5042080;28;20658;-79
2022/06/07 05:36:47;;;;;;;2.10;1.35;;;;;;;;;;5040128;28;20210;-78
2022/06/07 05:39:20;;;;;;;2.55;1.35;;;;;;;;;;5032271;28;20220;-77
2022/06/07 05:41:47;;;;;;;1.98;1.42;;;;;;;;;;5043629;28;20268;-78
2022/06/07 05:44:14;;;;;;;1.98;1.27;;;;;;;;;;5041081;28;20272;-79
2022/06/07 05:46:41;;;;;;;2.30;1.60;;;;;;;;;;5043231;28;20250;-77
2022/06/07 05:49:09;;;;;;;1.98;1.33;;;;;;;;;;5051984;28;20553;-81
2022/06/07 05:51:36;;;;;;;1.33;1.05;;;;;;;;;;5034460;28;20651;-78
2022/06/07 05:54:03;;;;;;;2.38;1.33;;;;;;;;;;5036020;28;20199;-79
2022/06/07 05:56:32;;;;;;;2.08;1.20;;;;;;;;;;5044180;28;20218;-79
2022/06/07 05:58:59;;;;;;;2.20;1.50;;;;;;;;;;5042894;28;20222;-79
2022/06/07 06:01:27;;;;;;;3.45;1.70;;;;;;;;;;5040469;28;20215;-78
2022/06/07 06:03:55;;;;;;;1.85;1.75;;;;;;;;;;5046629;28;20230;-80
2022/06/07 06:06:22;;;;;;;1.60;1.40;;;;;;;;;;5041218;28;20359;-78
2022/06/07 06:11:35;;;;;;;2.97;1.60;;;;;;;;;;5039591;28;20198;-79
2022/06/07 06:14:02;;;;;;;1.83;1.30;;;;;;;;;;5039539;28;20670;-78
2022/06/07 06:16:30;;;;;;;3.20;1.27;;;;;;;;;;5039939;28;20642;-78
2022/06/07 06:18:58;;;;;;;1.23;1.10;;;;;;;;;;5036679;28;20215;-78
2022/06/07 06:21:26;;;;;;;3.80;1.50;;;;;;;;;;5034520;28;20198;-79
2022/06/07 06:23:53;;;;;;;2.85;1.75;;;;;;;;;;5046716;28;20253;-78
2022/06/07 06:26:21;;;;;;;2.45;1.27;;;;;;;;;;5033524;28;20207;-80
2022/06/07 06:28:50;;;;;;;1.92;1.52;;;;;;;;;;5047514;28;20213;-80
2022/06/07 06:31:17;;;;;;;4.28;1.48;;;;;;;;;;5039625;28;20635;-79
2022/06/07 06:33:46;;;;;;;1.45;1.25;;;;;;;;;;5029578;28;20870;-78
2022/06/07 06:36:13;;;;;;;2.35;1.25;;;;;;;;;;5042291;28;20667;-80
2022/06/07 06:38:41;;;;;;;4.00;1.35;;;;;;;;;;5038647;28;20219;-80
2022/06/07 06:41:08;;;;;;;1.85;1.17;;;;;;;;;;5038938;28;20191;-81
2022/06/07 06:43:35;;;;;;;1.48;1.10;;;;;;;;;;5044008;28;20651;-80
2022/06/07 06:46:09;;;;;;;1.77;1.35;;;;;;;;;;5033490;28;20559;-78
2022/06/07 06:48:36;;;;;;;1.30;1.10;;;;;;;;;;5048042;28;20206;-80
2022/06/07 06:51:05;;;;;;;1.90;1.20;;;;;;;;;;5041639;28;20201;-83
2022/06/07 06:53:32;;;;;;;2.13;1.20;;;;;;;;;;5036323;28;20226;-80
2022/06/07 06:55:59;;;;;;;1.85;1.15;;;;;;;;;;5047403;28;20199;-80
2022/06/07 06:58:27;;;;;;;1.77;1.17;;;;;;;;;;5041459;28;20218;-80
2022/06/07 07:01:01;;;;;;;2.28;1.35;;;;;;;;;;5039635;28;20203;-80
2022/06/07 07:03:30;;;;;;;1.92;1.65;;;;;;;;;;5035458;28;20193;-79
2022/06/07 07:05:57;;;;;;;1.65;1.13;;;;;;;;;;5039629;28;20209;-79
2022/06/07 07:08:24;;;;;;;2.30;1.00;;;;;;;;;;5040666;28;20210;-80
2022/06/07 07:10:52;;;;;;;2.17;1.30;;;;;;;;;;5045339;28;20907;-83
2022/06/07 07:13:19;;;;;;;1.50;1.10;;;;;;;;;;5041009;28;20256;-80
2022/06/07 07:15:49;;;;;;;1.63;1.30;;;;;;;;;;5040260;28;20203;-81
2022/06/07 07:18:16;;;;;;;2.00;1.38;;;;;;;;;;5047338;28;20701;-79
2022/06/07 07:20:44;;;;;;;1.60;1.30;;;;;;;;;;5032112;28;20245;-80
2022/06/07 07:23:11;;;;;;;2.50;1.10;;;;;;;;;;5030925;28;20249;-82
2022/06/07 07:25:38;;;;;;;1.80;1.10;;;;;;;;;;5036130;28;20195;-82
2022/06/07 07:28:05;;;;;;;2.20;1.50;;;;;;;;;;5040566;28;20196;-78
2022/06/07 07:30:33;;;;;;;1.38;1.05;;;;;;;;;;5041436;28;20216;-80
2022/06/07 07:33:00;;;;;;;2.28;1.23;;;;;;;;;;5050055;28;20252;-79
2022/06/07 07:35:27;;;;;;;2.40;1.30;;;;;;;;;;5036432;28;20207;-80
2022/06/07 07:37:55;;;;;;;1.70;1.10;;;;;;;;;;5047892;28;20199;-78
2022/06/07 07:40:23;;;;;;;2.78;1.40;;;;;;;;;;5047379;28;20290;-80
2022/06/07 07:42:50;;;;;;;3.00;1.80;;;;;;;;;;5047734;28;20780;-79
2022/06/07 07:45:18;;;;;;;3.35;1.33;;;;;;;;;;5042164;28;20201;-79
2022/06/07 07:47:45;;;;;;;1.23;1.13;;;;;;;;;;5047559;28;20316;-81
2022/06/07 07:50:12;;;;;;;1.60;1.27;;;;;;;;;;5037278;28;20213;-79
2022/06/07 07:52:39;;;;;;;2.13;1.20;;;;;;;;;;5038268;28;20256;-79
2022/06/07 07:55:08;;;;;;;1.20;1.10;;;;;;;;;;5045465;28;20227;-80
2022/06/07 07:57:35;;;;;;;1.88;1.45;;;;;;;;;;5043845;28;20592;-80
2022/06/07 08:00:02;;;;;;;1.67;1.15;;;;;;;;;;5040433;28;20881;-79
2022/06/07 08:02:29;;;;;;;1.20;1.00;;;;;;;;;;5031528;28;20249;-79
2022/06/07 08:04:56;;;;;;;1.48;1.10;;;;;;;;;;5050399;28;20582;-79
2022/06/07 08:07:27;;;;;;;1.85;1.30;;;;;;;;;;5043328;28;20209;-78
2022/06/07 08:09:54;;;;;;;1.40;0.85;;;;;;;;;;5035147;28;20188;-76
2022/06/07 08:12:22;;;;;;;1.95;1.10;;;;;;;;;;5036744;28;20204;-78
2022/06/07 08:14:49;;;;;;;1.90;1.10;;;;;;;;;;5037533;28;21481;-77
2022/06/07 08:17:16;;;;;;;2.93;1.13;;;;;;;;;;5048989;28;20208;-78
2022/06/07 08:19:43;;;;;;;1.70;1.10;;;;;;;;;;5046678;28;20485;-78
2022/06/07 08:22:11;;;;;;;1.70;1.10;;;;;;;;;;5031889;28;20248;-77
2022/06/07 08:24:39;;;;;;;1.58;1.10;;;;;;;;;;5049033;28;20467;-76
2022/06/07 08:27:06;;;;;;;4.57;1.13;;;;;;;;;;5042125;28;20200;-77
2022/06/07 08:29:35;;;;;;;3.97;1.40;;;;;;;;;;5044277;28;20206;-77
2022/06/07 08:32:02;;;;;;;2.25;1.38;;;;;;;;;;5032201;28;20204;-79
2022/06/07 08:39:58;;;;;;;1.13;1.02;;;;;;;;;;5033764;28;20218;-78
2022/06/07 08:42:27;;;;;;;2.65;1.20;;;;;;;;;;5033509;28;20272;-79
2022/06/07 08:44:58;;;;;;;1.27;1.17;;;;;;;;;;5035480;28;20209;-81
2022/06/07 08:47:28;;;;;;;1.75;1.30;;;;;;;;;;5038541;28;20965;-81
2022/06/07 08:49:55;;;;;;;1.30;1.00;;;;;;;;;;5034614;28;20198;-79
2022/06/07 08:52:24;;;;;;;1.85;1.40;;;;;;;;;;5029691;28;20567;-78
2022/06/07 08:54:51;;;;;;;2.50;1.65;;;;;;;;;;5040371;28;20673;-79
2022/06/07 08:57:20;;;;;;;2.67;1.47;;;;;;;;;;5033788;28;20659;-78
2022/06/07 08:59:48;;;;;;;1.70;1.20;;;;;;;;;;5033960;28;21002;-79
2022/06/07 09:02:34;;;;;;;1.63;1.35;;;;;;;;;;5035267;28;20841;-80
2022/06/07 09:05:02;;;;;;;1.90;1.70;;;;;;;;;;5035689;28;20210;-78
2022/06/07 09:07:30;;;;;;;1.87;1.10;;;;;;;;;;5035226;28;20535;-78
2022/06/07 09:12:58;;;;;;;2.23;1.97;;;;;;;;;;5033416;28;20566;-79
2022/06/07 09:15:27;;;;;;;1.37;1.20;;;;;;;;;;5031424;28;20465;-79
2022/06/07 09:17:57;;;;;;;1.50;1.07;;;;;;;;;;5033405;28;20461;-83
2022/06/07 09:20:27;;;;;;;2.10;1.10;;;;;;;;;;5034540;28;20486;-82
2022/06/07 09:22:57;;;;;;;2.47;1.30;;;;;;;;;;5032960;28;21006;-78
2022/06/07 09:25:26;;;;;;;2.75;1.55;;;;;;;;;;5031650;28;20456;-82
2022/06/07 09:27:53;;;;;;;5.50;1.40;;;;;;;;;;5035679;28;22420;-81
2022/06/07 09:30:24;;;;;;;1.95;1.50;;;;;;;;;;5039654;28;20689;-81
2022/06/07 09:32:51;;;;;;;2.13;1.40;;;;;;;;;;5034224;28;20305;-78
2022/06/07 09:35:21;;;;;;;5.10;1.53;;;;;;;;;;5033791;28;20500;-80
2022/06/07 09:37:51;;;;;;;1.10;1.00;;;;;;;;;;5038169;28;20487;-77
2022/06/07 09:40:24;;;;;;;2.00;1.25;;;;;;;;;;5036355;28;20484;-77
2022/06/07 09:42:54;;;;;;;1.35;1.25;;;;;;;;;;5035835;28;20245;-78
2022/06/07 09:45:24;;;;;;;2.43;1.37;;;;;;;;;;5036959;28;20200;-79
2022/06/07 09:47:51;;;;;;;4.27;1.47;;;;;;;;;;5031353;28;20514;-81
2022/06/07 09:50:20;;;;;;;2.30;1.20;;;;;;;;;;5029216;28;20471;-78
2022/06/07 09:52:51;;;;;;;1.80;1.10;;;;;;;;;;5038686;28;20201;-77
2022/06/07 09:55:21;;;;;;;1.30;1.20;;;;;;;;;;5041965;28;20212;-75
2022/06/07 09:57:55;;;;;;;2.42;1.30;;;;;;;;;;5049901;28;20193;-77
2022/06/07 10:00:23;;;;;;;3.03;1.25;;;;;;;;;;5038215;28;20237;-80
2022/06/07 10:03:18;;;;;;;1.52;1.20;;;;;;;;;;5028227;28;20208;-79
2022/06/07 10:05:48;;;;;;;1.83;1.25;;;;;;;;;;5027646;28;20288;-78
2022/06/07 10:08:24;;;;;;;1.33;1.10;;;;;;;;;;5026971;28;20202;-79
2022/06/07 10:10:54;;;;;;;1.30;1.10;;;;;;;;;;5028700;28;20251;-79
2022/06/07 10:13:25;;;;;;;1.60;1.05;;;;;;;;;;5027818;28;21046;-78
2022/06/07 10:15:58;;;;;;;2.00;1.10;;;;;;;;;;5028207;28;20202;-79
2022/06/07 10:18:30;;;;;;;1.20;1.00;;;;;;;;;;5031218;28;20200;-77
2022/06/07 10:21:15;;;;;;;1.67;1.10;;;;;;;;;;5029398;28;20623;-79
2022/06/07 10:23:53;;;;;;;2.70;1.53;;;;;;;;;;5026850;28;20966;-79
2022/06/07 10:26:23;;;;;;;1.27;1.07;;;;;;;;;;5039812;28;20460;-77
2022/06/07 10:28:59;;;;;;;1.45;1.33;;;;;;;;;;5034387;28;20465;-78
2022/06/07 10:31:31;;;;;;;1.73;1.33;;;;;;;;;;5025744;28;20922;-79
2022/06/07 10:34:00;;;;;;;1.60;1.40;;;;;;;;;;5034866;28;20940;-78
2022/06/07 10:36:31;;;;;;;1.80;1.20;;;;;;;;;;5030055;28;20473;-78
2022/06/07 10:39:14;;;;;;;2.37;1.20;;;;;;;;;;5037166;28;20224;-81
2022/06/07 10:41:45;;;;;;;2.30;1.40;;;;;;;;;;5040262;28;21063;-78
2022/06/07 10:44:15;;;;;;;1.60;1.20;;;;;;;;;;5042000;28;20459;-79
2022/06/07 10:46:43;;;;;;;3.10;1.95;;;;;;;;;;5029590;28;20197;-81
2022/06/07 10:49:17;;;;;;;1.98;1.30;;;;;;;;;;5034084;28;20200;-80
2022/06/07 10:54:39;;;;;;;7.13;1.30;;;;;;;;;;5034517;28;20203;-78
2022/06/07 10:57:10;;;;;;;2.92;1.60;;;;;;;;;;5023966;28;20200;-78
2022/06/07 10:59:39;;;;;;;1.53;1.20;;;;;;;;;;5030548;28;20225;-77
2022/06/07 11:02:14;;;;;;;1.50;1.20;;;;;;;;;;5032506;28;20461;-79
2022/06/07 11:10:34;;;;;;;1.73;1.10;;;;;;;;;;5032909;28;21142;-77
2022/06/07 11:13:04;;;;;;;1.35;1.00;;;;;;;;;;5036879;28;20578;-81
2022/06/07 11:15:35;;;;;;;4.18;1.30;;;;;;;;;;5043221;28;20242;-78
2022/06/07 11:18:04;;;;;;;1.45;1.08;;;;;;;;;;5050702;28;20246;-77
2022/06/07 11:20:32;;;;;;;2.67;1.40;;;;;;;;;;5039752;28;20235;-77
2022/06/07 11:23:07;;;;;;;1.93;1.20;;;;;;;;;;5050507;28;20189;-80
2022/06/07 11:25:36;;;;;;;1.30;1.00;;;;;;;;;;5034382;28;20496;-79
2022/06/07 11:28:07;;;;;;;5.00;1.50;;;;;;;;;;5040899;28;20205;-77
2022/06/07 11:30:48;;;;;;;1.63;1.53;;;;;;;;;;5042152;28;20735;-76
2022/06/07 11:33:32;;;;;;;1.67;1.25;;;;;;;;;;5043725;28;20471;-76
2022/06/07 11:36:20;;;;;;;2.55;1.08;;;;;;;;;;5040569;28;20951;-78
2022/06/07 11:38:59;;;;;;;1.67;1.35;;;;;;;;;;5043853;28;20284;-78
2022/06/07 11:41:46;;;;;;;4.70;1.50;;;;;;;;;;5046150;28;20223;-79
2022/06/07 11:44:43;;;;;;;1.73;1.27;;;;;;;;;;5046413;28;20464;-78
2022/06/07 11:47:37;;;;;;;2.30;1.17;;;;;;;;;;5044347;28;20271;-76
2022/06/07 11:50:12;;;;;;;1.50;1.10;;;;;;;;;;5039420;28;20508;-77
2022/06/07 11:52:53;;;;;;;2.17;1.00;;;;;;;;;;5044123;28;20463;-79
2022/06/07 11:55:21;;;;;;;1.65;1.30;;;;;;;;;;5035398;28;20884;-79
2022/06/07 11:58:04;;;;;;;2.03;1.30;;;;;;;;;;5037910;28;20206;-78
2022/06/07 12:00:49;;;;;;;1.43;1.27;;;;;;;;;;5036270;28;20769;-79
2022/06/07 12:03:43;;;;;;;2.10;1.10;;;;;;;;;;5043192;28;20829;-78
2022/06/07 12:06:19;;;;;;;3.35;1.50;;;;;;;;;;5011628;28;20954;-76
2022/06/07 12:08:51;;;;;;;2.90;1.27;;;;;;;;;;5036489;28;20278;-79
2022/06/07 12:11:24;;;;;;;2.20;1.10;;;;;;;;;;5037148;28;20202;-79
2022/06/07 12:13:54;;;;;;;2.13;1.48;;;;;;;;;;5044642;28;20208;-78
2022/06/07 12:16:24;;;;;;;2.37;1.10;;;;;;;;;;5027764;28;20207;-79
2022/06/07 12:18:52;;;;;;;3.83;1.50;;;;;;;;;;5029978;28;20473;-78
2022/06/07 12:21:19;;;;;;;1.20;0.97;;;;;;;;;;5029725;28;20869;-78
2022/06/07 12:23:47;;;;;;;2.03;1.30;;;;;;;;;;5034370;28;20464;-78
2022/06/07 12:26:18;;;;;;;3.38;1.27;;;;;;;;;;5043293;28;20462;-80
2022/06/07 12:28:51;;;;;;;2.85;1.20;;;;;;;;;;5043051;28;20905;-80
2022/06/07 12:31:24;;;;;;;1.40;1.00;;;;;;;;;;5038550;28;20209;-79
2022/06/07 12:33:52;;;;;;;2.20;1.33;;;;;;;;;;5034582;28;20560;-81
2022/06/07 12:36:21;;;;;;;1.10;0.97;;;;;;;;;;5036930;28;20202;-79
2022/06/07 12:38:49;;;;;;;1.73;1.27;;;;;;;;;;5042915;28;20460;-79
2022/06/07 12:41:18;;;;;;;1.70;1.25;;;;;;;;;;5036743;28;20492;-79
2022/06/07 12:43:46;;;;;;;1.73;1.10;;;;;;;;;;5046270;28;20234;-79
2022/06/07 12:46:20;;;;;;;1.20;1.10;;;;;;;;;;5038567;28;20512;-78
2022/06/07 12:48:49;;;;;;;1.30;1.20;;;;;;;;;;5041030;28;20588;-79
2022/06/07 12:51:24;;;;;;;1.93;1.10;;;;;;;;;;5046685;28;20464;-80
2022/06/07 12:53:52;;;;;;;2.40;1.20;;;;;;;;;;5038727;28;20466;-78
2022/06/07 12:56:20;;;;;;;2.20;1.27;;;;;;;;;;5031046;28;20735;-81
2022/06/07 12:58:49;;;;;;;2.50;1.20;;;;;;;;;;5041094;28;20225;-78
2022/06/07 13:01:24;;;;;;;1.83;1.37;;;;;;;;;;5035339;28;20887;-76
2022/06/07 13:03:54;;;;;;;2.23;0.90;;;;;;;;;;5042129;28;20930;-80
2022/06/07 13:06:21;;;;;;;4.10;1.20;;;;;;;;;;5031232;28;20468;-78
2022/06/07 13:08:57;;;;;;;1.80;1.02;;;;;;;;;;5042473;28;20902;-78
2022/06/07 13:11:25;;;;;;;3.53;1.10;;;;;;;;;;5037139;28;20203;-80
2022/06/07 13:13:54;;;;;;;2.60;1.23;;;;;;;;;;5042202;28;20468;-77
2022/06/07 13:16:36;;;;;;;1.60;1.13;;;;;;;;;;5035669;28;20472;-77
2022/06/07 13:19:08;;;;;;;1.17;1.00;;;;;;;;;;5041618;28;20948;-79
2022/06/07 13:21:36;;;;;;;2.00;1.40;;;;;;;;;;5045061;28;20516;-78
2022/06/07 13:24:04;;;;;;;2.60;1.23;;;;;;;;;;5038806;28;20453;-77
2022/06/07 13:26:33;;;;;;;1.50;1.40;;;;;;;;;;5036756;28;20469;-76
2022/06/07 13:29:11;;;;;;;2.00;1.47;;;;;;;;;;5044264;28;20460;-78
2022/06/07 13:31:46;;;;;;;1.50;1.27;;;;;;;;;;5031636;28;20508;-80
2022/06/07 13:34:19;;;;;;;1.60;1.27;;;;;;;;;;5028718;28;20983;-77
2022/06/07 13:36:49;;;;;;;3.10;1.30;;;;;;;;;;5035904;28;20879;-78
2022/06/07 13:39:23;;;;;;;1.80;1.20;;;;;;;;;;5039969;28;20480;-79
2022/06/07 13:41:52;;;;;;;1.30;1.20;;;;;;;;;;5041699;28;21013;-76
2022/06/07 13:44:28;;;;;;;1.30;1.20;;;;;;;;;;5043403;28;20461;-78
2022/06/07 13:46:57;;;;;;;2.23;1.10;;;;;;;;;;5032133;28;20469;-77
2022/06/07 13:55:13;;;;;;;2.00;1.00;;;;;;;;;;5040076;28;20539;-77
2022/06/07 13:57:40;;;;;;;1.70;1.03;;;;;;;;;;5042124;28;20927;-78
2022/06/07 14:00:08;;;;;;;3.20;0.90;;;;;;;;;;5036887;28;21018;-76
2022/06/07 14:02:36;;;;;;;1.60;1.00;;;;;;;;;;5035928;28;20466;-79
2022/06/07 14:05:04;;;;;;;1.33;1.03;;;;;;;;;;5037304;28;20472;-81
2022/06/07 14:07:31;;;;;;;1.67;1.30;;;;;;;;;;5035808;28;20491;-80
2022/06/07 14:09:59;;;;;;;1.73;1.20;;;;;;;;;;5038864;28;20875;-75
2022/06/07 14:12:26;;;;;;;2.60;0.90;;;;;;;;;;5039983;28;20831;-76
2022/06/07 14:14:53;;;;;;;1.67;1.10;;;;;;;;;;5038461;28;20807;-77
2022/06/07 14:17:23;;;;;;;2.70;1.03;;;;;;;;;;5037014;28;20993;-77
2022/06/07 14:19:53;;;;;;;1.60;0.90;;;;;;;;;;5040423;28;20460;-77
2022/06/07 14:22:23;;;;;;;1.13;0.90;;;;;;;;;;5035846;28;20810;-78
2022/06/07 14:24:51;;;;;;;1.15;0.98;;;;;;;;;;5043061;28;20468;-82
2022/06/07 14:27:19;;;;;;;2.37;0.90;;;;;;;;;;5032797;28;20206;-78
2022/06/07 14:29:46;;;;;;;3.17;1.10;;;;;;;;;;5041094;28;21042;-77
2022/06/07 14:32:17;;;;;;;1.53;1.43;;;;;;;;;;5044169;28;20959;-78
2022/06/07 14:34:45;;;;;;;4.20;1.33;;;;;;;;;;5035988;28;20474;-76
2022/06/07 14:37:13;;;;;;;1.10;1.00;;;;;;;;;;5041926;28;20456;-78
2022/06/07 14:39:42;;;;;;;3.67;1.10;;;;;;;;;;5041900;28;20501;-76
2022/06/07 14:42:10;;;;;;;1.50;1.20;;;;;;;;;;5043065;28;21002;-79
2022/06/07 14:44:37;;;;;;;1.23;0.80;;;;;;;;;;5045944;28;20469;-79
2022/06/07 14:47:05;;;;;;;1.50;0.90;;;;;;;;;;5047960;28;20468;-76
2022/06/07 14:49:33;;;;;;;1.70;0.90;;;;;;;;;;5046799;28;20503;-77
2022/06/07 14:52:00;;;;;;;1.60;1.00;;;;;;;;;;5046886;28;20445;-76
2022/06/07 14:54:28;;;;;;;1.37;1.00;;;;;;;;;;5039818;28;20497;-79
2022/06/07 14:56:57;;;;;;;1.40;1.07;;;;;;;;;;5042969;28;20475;-76
2022/06/07 14:59:25;;;;;;;1.40;1.30;;;;;;;;;;5043768;28;20463;-79
2022/06/07 15:01:53;;;;;;;1.40;0.85;;;;;;;;;;5041883;28;20488;-80
2022/06/07 15:04:23;;;;;;;1.93;1.13;;;;;;;;;;5044084;28;20206;-77
2022/06/07 15:06:50;;;;;;;1.10;1.00;;;;;;;;;;5044039;28;20467;-79
2022/06/07 15:09:18;;;;;;;8.10;1.40;;;;;;;;;;5049215;28;20468;-77
2022/06/07 15:11:45;;;;;;;1.33;1.07;;;;;;;;;;5048032;28;20465;-76
2022/06/07 15:14:14;;;;;;;1.80;1.20;;;;;;;;;;5043089;28;21014;-78
2022/06/07 15:16:43;;;;;;;1.70;1.00;;;;;;;;;;5046757;28;20511;-77
2022/06/07 15:19:14;;;;;;;2.50;0.93;;;;;;;;;;5050880;28;20542;-77
2022/06/07 15:21:42;;;;;;;1.73;1.00;;;;;;;;;;5044670;28;20490;-79
2022/06/07 15:24:11;;;;;;;2.27;1.10;;;;;;;;;;5042001;28;20465;-76
2022/06/07 15:26:39;;;;;;;1.23;1.10;;;;;;;;;;5036893;28;20468;-77
2022/06/07 15:29:06;;;;;;;1.10;1.00;;;;;;;;;;5046285;28;20464;-76